Terminal Aerodrome Forecast
Issued by NWS Atlanta, GA

Current Version | Previous Version | Text Only | Print | Product List | Glossary On
Versions: 1 2 3 4 5 6 7 8 9 10 11 12 13 14 15 16 17 18 19 20 21 22 23 24 25 26 27 28 29 30 31 32 33 34 35
455
FTUS42 KFFC 281557 AAB
TAFATL
TAF AMD
KATL 281557Z 2816/0118 15009KT P6SM BKN020 BKN250
     FM281800 19010KT P6SM BKN035
     FM010000 19007KT P6SM SCT050 BKN120
     FM010900 20007KT 5SM BR SCT008 BKN012
     FM011400 22012G20KT P6SM BKN025=

USA.gov is the U.S. government's official web portal to all federal, state and local government web resources and services.